Time;durP1;ratioP1;P1;durP2;ratioP2;P2;SDS_P1;SDS_P2;PMS_P1;PMS_P2;Temp;Humidity;BMP_temperature;BMP_pressure;BME280_temperature;BME280_humidity;BME280_pressure;Samples;Min_cycle;Max_cycle;Signal;HPM_P1;HPM_P2
2021/01/31 00:00:28;;;;;;;11.18;5.38;;;4.30;90.00;;;;;;4873026;29;19927;-90
2021/01/31 00:02:54;;;;;;;13.63;5.40;;;4.30;90.00;;;;;;4870006;29;20018;-89
2021/01/31 00:05:21;;;;;;;13.90;4.45;;;4.40;89.70;;;;;;4865128;29;20399;-91
2021/01/31 00:07:48;;;;;;;16.15;4.68;;;4.40;88.80;;;;;;4893877;29;20045;-90
2021/01/31 00:10:16;;;;;;;11.50;4.18;;;4.30;89.20;;;;;;4890757;29;20029;-90
2021/01/31 00:12:42;;;;;;;15.73;4.50;;;4.30;89.20;;;;;;4871570;29;20041;-92
2021/01/31 00:15:11;;;;;;;13.30;4.28;;;4.20;90.00;;;;;;4883040;29;20040;-90
2021/01/31 00:17:37;;;;;;;13.25;3.78;;;4.20;89.20;;;;;;4882086;29;20044;-91
2021/01/31 00:20:04;;;;;;;18.23;5.18;;;4.20;89.70;;;;;;4870760;29;20033;-91
2021/01/31 00:22:29;;;;;;;16.30;4.00;;;4.20;89.50;;;;;;4865057;29;20506;-91
2021/01/31 00:24:55;;;;;;;12.65;4.22;;;4.20;89.70;;;;;;4873864;29;20037;-90
2021/01/31 00:27:23;;;;;;;9.50;3.40;;;4.20;89.20;;;;;;4877795;29;20033;-91
2021/01/31 00:29:50;;;;;;;15.73;3.97;;;4.20;88.30;;;;;;4870087;29;20525;-90
2021/01/31 00:32:28;;;;;;;13.82;3.78;;;4.20;90.10;;;;;;4873362;29;20022;-89
2021/01/31 00:34:55;;;;;;;15.93;4.03;;;4.20;89.40;;;;;;4869804;29;20029;-90
2021/01/31 00:37:21;;;;;;;13.05;3.30;;;4.10;88.80;;;;;;4875902;29;20028;-90
2021/01/31 00:39:49;;;;;;;9.68;3.42;;;4.20;89.60;;;;;;4866468;29;20360;-90
2021/01/31 00:42:16;;;;;;;12.88;3.33;;;4.10;88.30;;;;;;4877816;29;20025;-90
2021/01/31 00:44:53;;;;;;;13.32;3.67;;;4.10;89.50;;;;;;4878161;29;20136;-90
2021/01/31 00:47:19;;;;;;;;;;;4.10;88.70;;;;;;4878120;29;20032;-91
2021/01/31 00:49:46;;;;;;;14.10;3.13;;;4.10;88.30;;;;;;4869353;29;19915;-90
2021/01/31 00:52:12;;;;;;;9.07;2.70;;;4.00;88.20;;;;;;4875836;29;20037;-90
2021/01/31 00:54:38;;;;;;;7.85;2.38;;;4.00;88.20;;;;;;4870283;29;20027;-91
2021/01/31 00:57:04;;;;;;;;;;;4.00;88.00;;;;;;4882000;29;20067;-88
2021/01/31 00:59:30;;;;;;;9.07;3.78;;;4.00;88.20;;;;;;4881297;29;19966;-91
2021/01/31 01:01:55;;;;;;;12.85;3.45;;;4.00;87.90;;;;;;4885535;29;20033;-91
2021/01/31 01:04:21;;;;;;;15.18;3.47;;;3.90;88.30;;;;;;4900943;29;20035;-89
2021/01/31 01:06:47;;;;;;;11.77;3.30;;;3.90;87.90;;;;;;4883775;29;20033;-90
2021/01/31 01:09:13;;;;;;;13.82;2.55;;;3.80;87.90;;;;;;4890050;29;20033;-90
2021/01/31 01:11:39;;;;;;;15.73;3.30;;;3.80;88.50;;;;;;4881073;29;20017;-89
2021/01/31 01:14:06;;;;;;;11.10;2.78;;;3.80;86.90;;;;;;4892693;29;20328;-89
2021/01/31 01:16:33;;;;;;;7.35;2.75;;;3.80;87.50;;;;;;4894929;29;20031;-88
2021/01/31 01:18:58;;;;;;;10.10;3.03;;;3.70;88.60;;;;;;4894800;29;20104;-89
2021/01/31 01:21:24;;;;;;;14.88;3.20;;;3.70;88.60;;;;;;4891877;29;20069;-88
2021/01/31 01:23:50;;;;;;;16.00;3.10;;;3.60;88.20;;;;;;4904593;29;20096;-88
2021/01/31 01:26:16;;;;;;;6.28;2.42;;;3.60;89.00;;;;;;4897438;29;20036;-88
2021/01/31 01:28:41;;;;;;;9.55;2.50;;;3.50;88.20;;;;;;4886915;29;20034;-88
2021/01/31 01:31:07;;;;;;;7.90;2.90;;;3.40;88.30;;;;;;4880334;29;20037;-89
2021/01/31 01:33:33;;;;;;;8.57;2.00;;;3.30;89.40;;;;;;4900036;29;20033;-85
2021/01/31 01:35:59;;;;;;;6.85;2.42;;;3.20;89.20;;;;;;4886441;29;20379;-88
2021/01/31 01:38:25;;;;;;;9.82;2.50;;;3.20;89.00;;;;;;4887578;29;20107;-89
2021/01/31 01:40:55;;;;;;;4.68;2.10;;;3.10;88.70;;;;;;4880638;29;20040;-87
2021/01/31 01:43:22;;;;;;;5.88;2.13;;;3.00;88.90;;;;;;4873203;29;20454;-90
2021/01/31 01:46:07;;;;;;;10.20;2.90;;;3.00;89.00;;;;;;4869390;29;20056;-88
2021/01/31 01:48:34;;;;;;;7.63;1.92;;;2.90;89.10;;;;;;4878258;29;20471;-90
2021/01/31 01:51:00;;;;;;;8.60;2.28;;;2.80;89.50;;;;;;4867779;29;20021;-86
2021/01/31 01:53:27;;;;;;;17.35;2.60;;;2.80;89.90;;;;;;4888147;29;20056;-87
2021/01/31 01:56:09;;;;;;;9.90;2.53;;;2.70;88.70;;;;;;4903265;29;20036;-89
2021/01/31 01:58:35;;;;;;;9.73;2.90;;;2.70;90.20;;;;;;4889450;29;20033;-88
2021/01/31 02:01:02;;;;;;;5.72;2.15;;;2.70;90.00;;;;;;4879319;29;20029;-90
2021/01/31 02:03:40;;;;;;;6.47;2.13;;;2.60;90.10;;;;;;4878607;29;20037;-89
2021/01/31 02:06:13;;;;;;;6.80;1.95;;;2.60;90.10;;;;;;4879001;29;20509;-89
2021/01/31 02:08:40;;;;;;;9.95;1.85;;;2.60;90.00;;;;;;4889672;29;20491;-88
2021/01/31 02:11:07;;;;;;;6.13;2.08;;;2.60;90.00;;;;;;4881481;29;20551;-89
2021/01/31 02:13:33;;;;;;;9.43;2.17;;;2.60;89.70;;;;;;4894313;29;20036;-88
2021/01/31 02:16:00;;;;;;;9.25;2.30;;;2.60;89.50;;;;;;4881129;29;20025;-89
2021/01/31 02:18:37;;;;;;;9.23;2.28;;;2.50;89.60;;;;;;4875780;29;20116;-91
2021/01/31 02:21:17;;;;;;;5.68;1.90;;;2.40;89.80;;;;;;4873733;29;20417;-90
2021/01/31 02:24:05;;;;;;;7.45;1.98;;;2.40;90.10;;;;;;4880758;29;20383;-89
2021/01/31 02:27:01;;;;;;;9.75;2.28;;;2.40;90.20;;;;;;4873715;29;20029;-89
2021/01/31 02:29:45;;;;;;;8.60;1.90;;;2.40;89.80;;;;;;4880358;29;20029;-89
2021/01/31 02:32:37;;;;;;;8.63;3.08;;;2.40;90.00;;;;;;4880239;29;20494;-89
2021/01/31 02:35:16;;;;;;;10.38;2.45;;;2.40;89.20;;;;;;4854534;29;20495;-87
2021/01/31 02:37:55;;;;;;;7.80;1.98;;;2.40;89.30;;;;;;4867215;29;20090;-89
2021/01/31 02:40:44;;;;;;;10.90;2.20;;;2.40;88.60;;;;;;4875435;29;20041;-89
2021/01/31 02:43:27;;;;;;;5.15;2.25;;;2.30;89.80;;;;;;4870828;29;20021;-90
2021/01/31 02:46:16;;;;;;;5.85;1.83;;;2.20;90.20;;;;;;4879784;29;20383;-90
2021/01/31 02:48:52;;;;;;;7.25;2.10;;;2.20;90.20;;;;;;4878746;29;20278;-89
2021/01/31 02:51:26;;;;;;;13.38;2.92;;;2.10;90.20;;;;;;4878985;29;20025;-90
2021/01/31 02:54:00;;;;;;;10.85;2.00;;;2.10;90.50;;;;;;4866899;29;20104;-88
2021/01/31 02:56:47;;;;;;;6.53;1.50;;;2.10;89.20;;;;;;4889970;29;20052;-89
2021/01/31 02:59:21;;;;;;;5.25;1.65;;;2.10;89.70;;;;;;4878007;29;20062;-89
2021/01/31 03:01:52;;;;;;;6.35;2.40;;;2.00;88.70;;;;;;4866843;29;20040;-89
2021/01/31 03:04:38;;;;;;;8.45;1.90;;;2.10;90.00;;;;;;4884909;29;20041;-89
2021/01/31 03:07:11;;;;;;;8.98;2.10;;;2.10;89.40;;;;;;4879703;29;20151;-88
2021/01/31 03:09:57;;;;;;;4.53;1.75;;;2.10;89.10;;;;;;4875210;29;20525;-86
2021/01/31 03:12:31;;;;;;;11.75;2.47;;;2.10;88.40;;;;;;4860669;29;20475;-89
2021/01/31 03:15:02;;;;;;;7.72;3.15;;;2.10;89.40;;;;;;4871396;29;20044;-89
2021/01/31 03:17:33;;;;;;;6.50;2.00;;;2.00;88.60;;;;;;4878801;29;20084;-90
2021/01/31 03:20:08;;;;;;;6.70;1.90;;;2.00;89.70;;;;;;4864435;29;20044;-89
2021/01/31 03:22:43;;;;;;;8.10;1.65;;;1.90;89.20;;;;;;4880350;29;20043;-86
2021/01/31 03:25:19;;;;;;;6.90;1.88;;;2.00;89.30;;;;;;4885973;29;20039;-88
2021/01/31 03:27:45;;;;;;;7.63;1.83;;;2.00;88.70;;;;;;4890625;29;20028;-87
2021/01/31 03:30:12;;;;;;;;;;;1.90;88.40;;;;;;4893250;29;20075;-86
2021/01/31 03:35:34;;;;;;;5.22;1.63;;;1.90;89.00;;;;;;4925694;23;20061;-86
2021/01/31 03:38:12;;;;;;;6.32;2.60;;;1.90;88.40;;;;;;4893907;29;20033;-85
2021/01/31 03:40:42;;;;;;;7.20;1.70;;;1.90;87.80;;;;;;4890235;29;20077;-85
2021/01/31 03:43:08;;;;;;;6.90;1.98;;;1.80;88.40;;;;;;4889429;29;20052;-87
2021/01/31 03:45:41;;;;;;;6.43;1.65;;;1.80;88.50;;;;;;4878097;29;20053;-91
2021/01/31 03:48:14;;;;;;;4.60;1.55;;;1.80;88.20;;;;;;4878089;29;20037;-89
2021/01/31 03:50:41;;;;;;;9.40;1.73;;;1.80;88.80;;;;;;4878296;29;20505;-89
2021/01/31 03:53:07;;;;;;;10.10;2.10;;;1.70;89.60;;;;;;4878725;29;20036;-90
2021/01/31 03:55:33;;;;;;;6.15;1.85;;;1.70;90.00;;;;;;4877877;29;20490;-88
2021/01/31 03:58:04;;;;;;;13.02;1.95;;;1.70;90.10;;;;;;4878564;29;20079;-89
2021/01/31 04:00:36;;;;;;;6.95;1.67;;;1.70;89.40;;;;;;4877940;29;20128;-88
2021/01/31 04:03:11;;;;;;;9.45;1.88;;;1.70;90.00;;;;;;4877727;29;20490;-89
2021/01/31 04:05:47;;;;;;;7.35;1.85;;;1.60;89.80;;;;;;4877928;29;20025;-88
2021/01/31 04:08:15;;;;;;;2.78;1.48;;;1.60;89.70;;;;;;4870716;29;20033;-89
2021/01/31 04:10:42;;;;;;;6.60;2.40;;;1.60;90.00;;;;;;4872208;29;20036;-89
2021/01/31 04:13:09;;;;;;;7.00;2.25;;;1.60;89.70;;;;;;4865697;29;20017;-90
2021/01/31 04:15:54;;;;;;;7.65;1.60;;;1.50;90.10;;;;;;4885730;29;20025;-89
2021/01/31 04:18:22;;;;;;;5.47;1.90;;;1.50;90.30;;;;;;4864931;29;20026;-91
2021/01/31 04:20:48;;;;;;;15.48;1.90;;;1.50;90.10;;;;;;4872265;29;20486;-91
2021/01/31 04:23:15;;;;;;;13.43;2.25;;;1.50;90.00;;;;;;4879757;29;20029;-90
2021/01/31 04:25:41;;;;;;;9.10;1.90;;;1.40;91.00;;;;;;4882987;29;20104;-90
2021/01/31 04:28:09;;;;;;;;;;;1.40;90.50;;;;;;4881359;29;20104;-90
2021/01/31 04:30:39;;;;;;;7.47;2.65;;;1.30;91.20;;;;;;4882379;29;19924;-90
2021/01/31 04:33:05;;;;;;;7.95;1.80;;;1.30;90.60;;;;;;4878013;29;20033;-89
2021/01/31 04:35:31;;;;;;;2.45;1.60;;;1.30;90.80;;;;;;4896612;29;20033;-90
2021/01/31 04:37:56;;;;;;;9.07;3.17;;;1.30;90.90;;;;;;4882269;29;20040;-90
2021/01/31 04:40:22;;;;;;;3.30;1.65;;;1.30;90.90;;;;;;4881801;29;20045;-88
2021/01/31 04:42:48;;;;;;;;;;;1.30;91.10;;;;;;4862895;29;20026;-89
2021/01/31 04:45:15;;;;;;;8.73;1.85;;;1.40;91.00;;;;;;4892498;29;20010;-90
2021/01/31 04:48:05;;;;;;;8.98;1.90;;;1.40;91.10;;;;;;4879733;29;20029;-89
2021/01/31 04:50:38;;;;;;;10.90;2.00;;;1.40;90.60;;;;;;4869747;29;20085;-88
2021/01/31 04:53:26;;;;;;;9.05;2.03;;;1.40;90.40;;;;;;4884722;29;20156;-87
2021/01/31 04:56:03;;;;;;;8.20;1.65;;;1.40;90.50;;;;;;4899043;29;20065;-89
2021/01/31 04:58:35;;;;;;;6.72;2.22;;;1.50;90.50;;;;;;4877396;29;20109;-88
2021/01/31 05:01:12;;;;;;;9.48;1.90;;;1.40;90.70;;;;;;4890042;29;20029;-88
2021/01/31 05:03:56;;;;;;;;;;;1.50;90.50;;;;;;4905107;29;20084;-89
2021/01/31 05:06:24;;;;;;;8.35;1.67;;;1.40;90.50;;;;;;4863722;29;19912;-90
2021/01/31 05:08:50;;;;;;;5.10;1.83;;;1.40;90.20;;;;;;4876623;29;20033;-91
2021/01/31 05:11:43;;;;;;;10.25;1.88;;;1.40;90.90;;;;;;4876471;29;20130;-90
2021/01/31 05:14:31;;;;;;;9.05;2.35;;;1.40;90.50;;;;;;4876554;29;20542;-90
2021/01/31 05:16:57;;;;;;;4.40;1.83;;;1.30;90.10;;;;;;4880981;29;20500;-91
2021/01/31 05:19:29;;;;;;;7.93;2.50;;;1.30;90.80;;;;;;4867625;29;20045;-89
2021/01/31 05:21:55;;;;;;;8.05;1.75;;;1.20;90.90;;;;;;4880630;29;20482;-90
2021/01/31 05:24:22;;;;;;;12.90;1.83;;;1.20;91.20;;;;;;4879266;29;20064;-90
2021/01/31 05:26:57;;;;;;;6.68;1.50;;;1.10;91.20;;;;;;4869098;29;20051;-90
2021/01/31 05:29:28;;;;;;;8.70;2.05;;;1.10;91.20;;;;;;4880404;29;20037;-91
2021/01/31 05:32:04;;;;;;;5.95;1.75;;;1.00;91.90;;;;;;4881312;29;20419;-91
2021/01/31 05:34:36;;;;;;;8.23;1.77;;;1.00;92.10;;;;;;4878927;29;20037;-91
2021/01/31 05:37:04;;;;;;;13.00;2.00;;;1.00;92.30;;;;;;4868292;29;20517;-91
2021/01/31 05:39:41;;;;;;;4.43;1.70;;;1.00;92.20;;;;;;4866713;29;20397;-91
2021/01/31 05:42:11;;;;;;;8.40;1.77;;;1.00;92.20;;;;;;4880422;29;20543;-90
2021/01/31 05:44:37;;;;;;;7.57;1.80;;;1.00;92.10;;;;;;4866622;29;20164;-90
2021/01/31 05:47:16;;;;;;;10.40;2.20;;;1.00;92.10;;;;;;4880510;29;20518;-90
2021/01/31 05:49:45;;;;;;;8.75;2.10;;;1.10;92.00;;;;;;4878111;29;20036;-91
2021/01/31 05:52:20;;;;;;;8.18;2.30;;;1.10;92.10;;;;;;4878364;29;20097;-90
2021/01/31 05:54:48;;;;;;;13.13;2.35;;;1.10;91.70;;;;;;4877966;29;20478;-89
2021/01/31 05:57:29;;;;;;;3.60;2.08;;;1.10;91.60;;;;;;4879861;29;20029;-89
2021/01/31 05:59:56;;;;;;;8.52;2.10;;;1.10;91.90;;;;;;4879347;29;20047;-89
2021/01/31 06:02:32;;;;;;;4.28;1.95;;;1.10;91.70;;;;;;4878643;29;20117;-89
2021/01/31 06:05:10;;;;;;;7.65;1.77;;;1.10;91.60;;;;;;4894841;29;20031;-89
2021/01/31 06:07:38;;;;;;;9.27;2.75;;;1.10;91.70;;;;;;4879609;29;20054;-89
2021/01/31 06:10:16;;;;;;;10.15;2.00;;;1.00;91.80;;;;;;4869601;29;20081;-90
2021/01/31 06:12:44;;;;;;;7.30;2.22;;;1.00;91.80;;;;;;4873381;29;20387;-91
2021/01/31 06:15:29;;;;;;;8.45;2.15;;;0.90;92.30;;;;;;4876181;29;20040;-89
2021/01/31 06:18:13;;;;;;;7.75;1.92;;;0.90;92.00;;;;;;4864230;29;20546;-89
2021/01/31 06:20:42;;;;;;;6.90;2.05;;;1.00;92.00;;;;;;4876814;29;20036;-87
2021/01/31 06:23:29;;;;;;;9.85;2.03;;;1.10;91.60;;;;;;4880500;29;20021;-89
2021/01/31 06:25:54;;;;;;;9.32;2.10;;;1.10;91.70;;;;;;4881091;29;20491;-90
2021/01/31 06:28:24;;;;;;;5.40;1.45;;;1.00;92.20;;;;;;4879157;29;20025;-90
2021/01/31 06:31:10;;;;;;;11.65;2.30;;;0.90;93.00;;;;;;4879712;29;20062;-90
2021/01/31 06:33:38;;;;;;;8.10;2.05;;;0.90;93.30;;;;;;4879389;29;20486;-89
2021/01/31 06:36:30;;;;;;;11.25;2.65;;;0.90;93.00;;;;;;4878988;29;20044;-90
2021/01/31 06:39:05;;;;;;;4.22;2.20;;;0.90;93.30;;;;;;4899201;29;20048;-89
2021/01/31 06:41:58;;;;;;;7.57;2.22;;;0.90;93.40;;;;;;4915807;29;20482;-90
2021/01/31 06:44:40;;;;;;;9.45;2.22;;;0.90;92.70;;;;;;4880569;29;20037;-90
2021/01/31 06:47:28;;;;;;;6.82;2.10;;;0.80;93.30;;;;;;4878000;29;20036;-90
2021/01/31 06:50:22;;;;;;;6.40;2.13;;;0.80;93.10;;;;;;4876502;29;20036;-90
2021/01/31 06:53:07;;;;;;;5.97;1.85;;;0.90;93.30;;;;;;4879401;29;20053;-90
2021/01/31 06:55:51;;;;;;;5.35;2.08;;;0.90;93.40;;;;;;4882260;29;20041;-88
2021/01/31 06:58:28;;;;;;;7.82;2.30;;;0.90;93.20;;;;;;4902116;29;20119;-88
2021/01/31 07:01:08;;;;;;;12.45;2.25;;;0.90;93.50;;;;;;4879722;29;20033;-89
2021/01/31 07:03:39;;;;;;;3.88;1.95;;;0.90;92.60;;;;;;4897781;29;20399;-90
2021/01/31 07:06:17;;;;;;;8.15;2.20;;;0.90;92.50;;;;;;4888107;29;20041;-88
2021/01/31 07:09:21;;;;;;;10.10;2.00;;;0.90;93.20;;;;;;4899016;29;20113;-88
2021/01/31 07:12:01;;;;;;;16.92;3.22;;;0.90;92.90;;;;;;4890304;29;20040;-89
2021/01/31 07:14:42;;;;;;;5.47;1.83;;;0.90;92.90;;;;;;4896794;29;20033;-90
2021/01/31 07:17:25;;;;;;;7.82;2.42;;;0.90;93.10;;;;;;4896631;29;20021;-90
2021/01/31 07:20:13;;;;;;;9.80;2.38;;;0.90;93.20;;;;;;4872424;29;20041;-90
2021/01/31 07:22:55;;;;;;;13.95;2.35;;;1.00;93.10;;;;;;4867957;29;20036;-90
2021/01/31 07:25:32;;;;;;;18.80;2.35;;;1.00;93.00;;;;;;4881034;29;20432;-91
2021/01/31 07:28:15;;;;;;;11.48;2.58;;;1.00;92.80;;;;;;4901503;29;20031;-91
2021/01/31 07:31:03;;;;;;;9.48;2.58;;;1.00;92.70;;;;;;4893327;29;20113;-91
2021/01/31 07:33:44;;;;;;;13.05;2.38;;;0.90;92.90;;;;;;4887225;29;20045;-92
2021/01/31 07:36:24;;;;;;;8.70;1.80;;;1.00;93.00;;;;;;4890090;29;20040;-89
2021/01/31 07:39:01;;;;;;;8.38;2.40;;;1.10;93.20;;;;;;4888086;29;20037;-89
2021/01/31 07:41:28;;;;;;;13.40;2.13;;;1.10;92.70;;;;;;4875558;29;20018;-91
2021/01/31 07:44:01;;;;;;;12.02;2.13;;;1.10;92.80;;;;;;4879426;29;20044;-91
2021/01/31 07:46:27;;;;;;;10.05;3.22;;;1.10;92.80;;;;;;4876884;29;20483;-90
2021/01/31 07:48:55;;;;;;;;;;;1.10;92.70;;;;;;4891515;29;20029;-90
2021/01/31 07:51:21;;;;;;;7.05;2.17;;;1.10;92.50;;;;;;4879907;29;19912;-90
2021/01/31 07:53:46;;;;;;;7.15;2.45;;;1.20;92.60;;;;;;4876088;29;20040;-89
2021/01/31 07:56:29;;;;;;;13.35;2.15;;;1.20;92.60;;;;;;4887516;29;20029;-90
2021/01/31 07:59:18;;;;;;;10.50;2.13;;;1.20;93.10;;;;;;4884051;29;20102;-89
2021/01/31 08:01:51;;;;;;;25.13;2.90;;;1.20;92.60;;;;;;4891715;29;20039;-90
2021/01/31 08:04:18;;;;;;;13.25;3.22;;;1.30;92.70;;;;;;4891718;29;20090;-90
2021/01/31 08:06:45;;;;;;;13.57;3.92;;;1.30;92.60;;;;;;4891090;29;20033;-91
2021/01/31 08:09:30;;;;;;;13.20;2.60;;;1.30;92.80;;;;;;4878088;29;20029;-91
2021/01/31 08:12:06;;;;;;;8.18;2.75;;;1.30;92.50;;;;;;4880989;29;20029;-90
2021/01/31 08:15:29;;;;;;;6.25;2.13;;;1.30;92.00;;;;;;4881636;29;20185;-90
2021/01/31 08:17:54;;;;;;;11.38;2.63;;;1.30;92.40;;;;;;4865534;29;20061;-90
2021/01/31 08:20:31;;;;;;;8.80;2.40;;;1.40;92.00;;;;;;4879935;29;20483;-91
2021/01/31 08:23:04;;;;;;;10.48;2.40;;;1.50;92.00;;;;;;4898995;29;20053;-92
2021/01/31 08:26:00;;;;;;;7.80;2.17;;;1.50;92.20;;;;;;4874938;29;20021;-89
2021/01/31 08:28:31;;;;;;;10.38;2.60;;;1.50;91.70;;;;;;4876686;29;20043;-90
2021/01/31 08:31:03;;;;;;;9.85;2.63;;;1.50;91.80;;;;;;4870106;29;20041;-91
2021/01/31 08:33:34;;;;;;;9.98;2.20;;;1.50;91.70;;;;;;4872230;29;20073;-91
2021/01/31 08:36:21;;;;;;;7.60;2.22;;;1.60;91.90;;;;;;4862990;29;20036;-91
2021/01/31 08:38:51;;;;;;;10.23;2.65;;;1.60;91.70;;;;;;4870128;29;20041;-90
2021/01/31 08:41:26;;;;;;;10.98;2.30;;;1.70;91.70;;;;;;4865140;29;20115;-90
2021/01/31 08:43:54;;;;;;;8.48;2.47;;;1.80;91.60;;;;;;4868146;29;20414;-89
2021/01/31 08:46:29;;;;;;;5.63;2.50;;;1.90;91.30;;;;;;4868514;29;20088;-90
2021/01/31 08:48:56;;;;;;;8.15;2.58;;;2.00;91.40;;;;;;4872189;29;20030;-91
2021/01/31 08:51:27;;;;;;;10.30;3.35;;;2.10;91.10;;;;;;4872133;29;20018;-92
2021/01/31 08:54:17;;;;;;;13.90;3.47;;;2.10;90.60;;;;;;4874858;29;20029;-89
2021/01/31 08:56:55;;;;;;;9.85;3.10;;;2.20;90.80;;;;;;4879007;29;20752;-91
2021/01/31 08:59:33;;;;;;;7.90;2.45;;;2.20;90.20;;;;;;4880134;29;20032;-90
2021/01/31 09:01:58;;;;;;;5.85;2.35;;;2.20;90.10;;;;;;4868276;29;20025;-89
2021/01/31 09:04:25;;;;;;;12.02;3.40;;;2.30;89.40;;;;;;4874051;29;20055;-90
2021/01/31 09:06:52;;;;;;;14.75;3.00;;;2.20;89.30;;;;;;4879855;29;20104;-89
2021/01/31 09:09:26;;;;;;;16.02;3.20;;;2.20;90.30;;;;;;4879330;29;20017;-90
2021/01/31 09:11:57;;;;;;;14.85;3.58;;;2.30;89.60;;;;;;4871645;29;20546;-88
2021/01/31 09:14:26;;;;;;;9.82;2.67;;;2.30;88.70;;;;;;4871002;29;20082;-90
2021/01/31 09:17:23;;;;;;;5.72;2.75;;;2.30;88.80;;;;;;4875479;29;20033;-91
2021/01/31 09:19:49;;;;;;;10.95;2.38;;;2.40;89.50;;;;;;4870273;29;20083;-91
2021/01/31 09:22:20;;;;;;;15.43;2.50;;;2.40;90.00;;;;;;4872846;29;20025;-91
2021/01/31 09:24:51;;;;;;;12.18;2.70;;;2.40;87.90;;;;;;4870482;29;20108;-91
2021/01/31 09:27:23;;;;;;;7.45;2.60;;;2.50;89.30;;;;;;4866884;29;20024;-91
2021/01/31 09:29:59;;;;;;;19.73;3.60;;;2.50;89.60;;;;;;4865230;29;20022;-90
2021/01/31 09:32:30;;;;;;;5.55;2.65;;;2.40;89.10;;;;;;4867862;29;20022;-90
2021/01/31 09:34:59;;;;;;;11.55;3.33;;;2.40;90.00;;;;;;4869267;29;20249;-91
2021/01/31 09:37:30;;;;;;;17.95;4.97;;;2.40;89.50;;;;;;4870482;29;20505;-91
2021/01/31 09:39:59;;;;;;;12.38;3.17;;;2.30;89.50;;;;;;4869814;29;20034;-91
2021/01/31 09:42:30;;;;;;;11.63;3.10;;;2.30;90.30;;;;;;4867495;29;20017;-90
2021/01/31 09:45:00;;;;;;;11.48;3.05;;;2.40;89.60;;;;;;4869939;29;20033;-90
2021/01/31 09:47:26;;;;;;;8.77;2.70;;;2.40;89.40;;;;;;4872717;29;20395;-90
2021/01/31 09:49:56;;;;;;;10.93;2.60;;;2.50;88.50;;;;;;4879373;29;20461;-91
2021/01/31 09:52:22;;;;;;;16.27;2.95;;;2.50;88.80;;;;;;4878576;29;20125;-90
2021/01/31 09:54:48;;;;;;;9.20;2.47;;;2.50;90.20;;;;;;4875246;29;20048;-91
2021/01/31 09:57:26;;;;;;;10.65;3.03;;;2.60;89.10;;;;;;4875435;29;20025;-90
2021/01/31 10:00:30;;;;;;;12.95;3.55;;;2.60;88.30;;;;;;4871904;29;20073;-90
2021/01/31 10:03:26;;;;;;;8.07;2.53;;;2.60;89.10;;;;;;4881429;29;20042;-90
2021/01/31 10:06:17;;;;;;;10.05;2.60;;;2.60;88.50;;;;;;4890851;29;20049;-91
2021/01/31 10:08:59;;;;;;;6.10;2.38;;;2.70;88.30;;;;;;4890021;29;20104;-92
2021/01/31 10:11:33;;;;;;;8.68;2.60;;;2.80;88.50;;;;;;4871642;29;20029;-91
2021/01/31 10:14:00;;;;;;;8.95;2.47;;;2.90;87.70;;;;;;4880073;29;20032;-90
2021/01/31 10:16:30;;;;;;;12.32;2.72;;;2.90;86.80;;;;;;4881337;29;20024;-89
2021/01/31 10:19:21;;;;;;;9.30;3.53;;;3.00;87.40;;;;;;4879997;29;20127;-90
2021/01/31 10:21:53;;;;;;;8.00;2.60;;;3.00;87.70;;;;;;4881088;29;20387;-90
2021/01/31 10:24:26;;;;;;;6.63;2.33;;;3.10;86.40;;;;;;4881772;29;20036;-91
2021/01/31 10:27:09;;;;;;;7.03;2.75;;;3.10;86.10;;;;;;4881994;29;20441;-91
2021/01/31 10:29:36;;;;;;;13.45;2.80;;;3.20;86.70;;;;;;4880826;29;20029;-90
2021/01/31 10:32:40;;;;;;;12.63;2.78;;;3.20;86.50;;;;;;4877039;29;20442;-92
2021/01/31 10:35:21;;;;;;;15.05;2.65;;;3.20;85.80;;;;;;4873744;29;20053;-91
2021/01/31 10:37:47;;;;;;;11.32;3.40;;;3.30;84.80;;;;;;4872038;29;20045;-92
2021/01/31 10:40:15;;;;;;;6.82;2.50;;;3.30;85.50;;;;;;4879328;29;20158;-91
2021/01/31 10:42:40;;;;;;;10.40;3.22;;;3.40;84.50;;;;;;4874516;29;20368;-90
2021/01/31 10:45:13;;;;;;;9.82;3.58;;;3.30;84.30;;;;;;4875205;29;20032;-93
2021/01/31 10:47:38;;;;;;;11.32;2.97;;;3.30;84.00;;;;;;4862798;29;20113;-91
2021/01/31 10:50:06;;;;;;;16.27;4.53;;;3.30;85.40;;;;;;4868336;29;20189;-92
2021/01/31 10:52:33;;;;;;;9.40;3.15;;;3.30;86.60;;;;;;4874484;29;20035;-92
2021/01/31 10:54:59;;;;;;;11.20;3.35;;;3.40;85.40;;;;;;4870111;29;20037;-93
2021/01/31 10:57:24;;;;;;;15.27;3.10;;;3.40;84.90;;;;;;4867536;29;20025;-92
2021/01/31 10:59:51;;;;;;;7.75;2.90;;;3.30;85.40;;;;;;4885156;29;20574;-90
2021/01/31 11:02:17;;;;;;;11.63;4.00;;;3.40;85.60;;;;;;4887982;29;20029;-93
2021/01/31 11:04:43;;;;;;;14.48;4.13;;;3.40;85.90;;;;;;4872429;29;20079;-92
2021/01/31 11:07:09;;;;;;;18.88;3.38;;;3.40;85.90;;;;;;4871430;29;20398;-94
2021/01/31 11:09:35;;;;;;;21.27;3.60;;;3.40;85.40;;;;;;4871755;29;20033;-93
2021/01/31 11:12:01;;;;;;;11.82;3.75;;;3.40;85.70;;;;;;4872554;29;20038;-92
2021/01/31 11:14:27;;;;;;;9.82;4.38;;;3.40;85.70;;;;;;4872539;29;20132;-90
2021/01/31 11:16:54;;;;;;;10.52;3.80;;;3.50;86.00;;;;;;4874407;29;20029;-93
2021/01/31 11:19:19;;;;;;;7.28;3.00;;;3.50;85.40;;;;;;4870324;29;20444;-92
2021/01/31 11:21:45;;;;;;;12.75;4.03;;;3.40;85.30;;;;;;4875364;29;20033;-93
2021/01/31 11:24:11;;;;;;;10.77;3.25;;;3.40;85.50;;;;;;4882204;29;20651;-92
2021/01/31 11:26:36;;;;;;;14.38;3.63;;;3.40;84.10;;;;;;4884002;29;20049;-92
2021/01/31 11:29:03;;;;;;;9.82;3.58;;;3.40;85.10;;;;;;4880851;29;20060;-92
2021/01/31 11:31:28;;;;;;;;;;;3.40;86.40;;;;;;4881226;29;20036;-91
2021/01/31 11:33:55;;;;;;;7.75;3.10;;;3.40;85.90;;;;;;4888869;29;19915;-90
2021/01/31 11:36:22;;;;;;;4.82;2.95;;;3.50;87.20;;;;;;4880599;29;20021;-93
2021/01/31 11:38:49;;;;;;;13.85;3.20;;;3.50;84.40;;;;;;4868872;29;20045;-92
2021/01/31 11:41:15;;;;;;;9.50;2.80;;;3.40;86.00;;;;;;4884268;29;20079;-90
2021/01/31 11:43:42;;;;;;;12.85;3.15;;;3.40;85.20;;;;;;4867813;29;20038;-92
2021/01/31 11:46:07;;;;;;;9.98;2.95;;;3.40;85.80;;;;;;4875477;29;20060;-92
2021/01/31 11:48:33;;;;;;;11.52;4.50;;;3.40;86.10;;;;;;4880837;29;20029;-88
2021/01/31 11:50:59;;;;;;;10.95;4.88;;;3.40;84.80;;;;;;4877715;29;20044;-92
2021/01/31 11:53:25;;;;;;;11.05;4.40;;;3.30;85.00;;;;;;4898548;29;20081;-90
2021/01/31 11:55:51;;;;;;;;;;;3.30;86.50;;;;;;4894637;29;20029;-91
2021/01/31 11:58:17;;;;;;;15.55;4.28;;;3.40;86.10;;;;;;4868621;29;19920;-89
2021/01/31 12:00:43;;;;;;;17.08;4.30;;;3.40;87.30;;;;;;4867151;29;20047;-90
2021/01/31 12:03:10;;;;;;;11.82;3.65;;;3.30;86.60;;;;;;4871272;29;20093;-88
2021/01/31 12:05:36;;;;;;;12.82;4.30;;;3.30;85.30;;;;;;4863441;29;20029;-88
2021/01/31 12:08:03;;;;;;;16.65;4.18;;;3.30;86.10;;;;;;4880983;29;20029;-90
2021/01/31 12:10:29;;;;;;;13.95;4.22;;;3.30;85.90;;;;;;4881683;29;20060;-88
2021/01/31 12:12:55;;;;;;;23.13;4.50;;;3.30;86.80;;;;;;4875869;29;20026;-92
2021/01/31 12:15:21;;;;;;;13.43;4.07;;;3.30;87.40;;;;;;4862943;29;20045;-90
2021/01/31 12:17:46;;;;;;;9.77;4.60;;;3.40;87.10;;;;;;4867914;29;20017;-90
2021/01/31 12:20:14;;;;;;;9.45;4.82;;;3.40;86.90;;;;;;4862824;29;20395;-91
2021/01/31 12:22:40;;;;;;;9.55;4.32;;;3.40;87.10;;;;;;4870450;29;20054;-90
2021/01/31 12:25:07;;;;;;;22.35;7.20;;;3.40;88.20;;;;;;4873911;29;20503;-90
2021/01/31 12:27:33;;;;;;;9.63;4.38;;;3.40;88.30;;;;;;4872122;29;20033;-92
2021/01/31 12:29:59;;;;;;;12.38;5.72;;;3.50;89.00;;;;;;4877086;29;20033;-90
2021/01/31 12:32:24;;;;;;;12.20;6.10;;;3.40;88.20;;;;;;4878448;29;20610;-90
2021/01/31 12:34:50;;;;;;;20.75;8.25;;;3.40;90.00;;;;;;4873425;29;20043;-90
2021/01/31 12:37:17;;;;;;;16.83;6.68;;;3.40;90.10;;;;;;4878509;29;20061;-90
2021/01/31 12:39:43;;;;;;;15.73;5.95;;;3.40;90.30;;;;;;4878032;29;20100;-91
2021/01/31 12:42:09;;;;;;;13.20;5.55;;;3.40;90.00;;;;;;4878380;29;20104;-91
2021/01/31 12:44:34;;;;;;;15.73;6.47;;;3.40;90.40;;;;;;4878788;29;20056;-91
2021/01/31 12:47:00;;;;;;;16.15;6.57;;;3.30;90.70;;;;;;4878980;29;20474;-90
2021/01/31 12:49:26;;;;;;;16.73;6.53;;;3.20;91.30;;;;;;4881869;29;20090;-91
2021/01/31 12:51:52;;;;;;;22.00;5.90;;;3.10;91.70;;;;;;4881733;29;20144;-91
2021/01/31 12:54:20;;;;;;;19.52;7.93;;;3.00;92.40;;;;;;4879895;29;20036;-89
2021/01/31 12:56:46;;;;;;;22.27;7.00;;;2.90;92.50;;;;;;4878832;29;20025;-91
2021/01/31 12:59:11;;;;;;;17.85;6.78;;;2.80;93.10;;;;;;4873579;29;20501;-91
2021/01/31 13:01:37;;;;;;;19.55;7.78;;;2.80;93.40;;;;;;4896738;29;20029;-91
2021/01/31 13:04:03;;;;;;;19.38;7.97;;;2.80;93.30;;;;;;4880906;29;20025;-90
2021/01/31 13:06:28;;;;;;;20.45;6.93;;;2.90;93.40;;;;;;4871201;29;20109;-92
2021/01/31 13:08:54;;;;;;;17.67;7.40;;;2.90;93.40;;;;;;4880922;29;20065;-89
2021/01/31 13:11:20;;;;;;;18.27;7.10;;;2.90;93.60;;;;;;4893198;29;20096;-89
2021/01/31 13:13:45;;;;;;;18.83;7.43;;;3.00;93.50;;;;;;4898536;29;20049;-88
2021/01/31 13:16:12;;;;;;;14.45;7.38;;;3.10;93.10;;;;;;4902029;29;20026;-90
2021/01/31 13:18:38;;;;;;;16.92;7.22;;;3.10;92.90;;;;;;4889375;29;20012;-87
2021/01/31 13:21:04;;;;;;;17.67;6.90;;;3.10;93.10;;;;;;4906618;29;20056;-88
2021/01/31 13:23:30;;;;;;;20.52;8.55;;;3.20;93.50;;;;;;4903543;29;20048;-91